OISY  Yasouj  Airport

Iran

Add Bookmark
ICAO OISY
Type Airport
Status Operational
Latitude
30° 42' 1" N
30.700500
Longitude
51° 32' 42" E
51.545101
Local (DST + 5) UTC (GMT + 4)
Apr 27, 2015 08:33 Apr 27, 2015 04:03
Sunrise-Sunset Local UTC
Begin Civil Twilight 05:57 01:27
Sunrise 06:22 01:52
Sunset 07:40 15:10
End Civil Twilight 08:05 15:35
VFR
VFR
MVFR
MVFR
IFR
VFR
LIFR
VFR
Unknown
Unavailable

Current Weather

METAR Observed VFR
OISY 270330Z 00000KT 9999 FEW045 14/01 Q1024 Mon, Apr 27, 2015 @ 03:30 UTC
(33 Minutes ago)
Visual Flight Rules
Wind Visibility Clouds Conditions
Calm 10 km or more
  • Few at 4,500 ft AGL
  • No significant weather
Temperatures Readings Precipitation
Current Temp
14°C
57°F
Dewpoint
1°C
34°F
Humidity 41%
Altimeter 30.24" Hg
Sea Level Pressure 1,024 mb
Field Elevation
1,811 m
5,942 ft
None Recorded

Additional weather within a 92.6km radius of OISY

Map ICAO Location
OIAH 79.6km W/SW (240°)
VFR
VFR
MVFR
MVFR
IFR
VFR
LIFR
VFR
Unknown
Unavailable
-
-

CheckWX.com is intended as a tool to help pilots better visualize weather data. It is not intended as a substitute for an official weather briefing obtained from a Flight Service Station. CheckWX.com does not meet the FAA requirements for an official pre-flight weather briefing. Therefore, it's important that pilots still call and obtain an official FSS pre-flight weather briefing.

© 2007-2015 CheckWX.com
04:03:18 UTC